sensor_id;sensor_type;location;lat;lon;timestamp;pressure;altitude;pressure_sealevel;temperature;humidity
42511;BME280;28141;51.120;17.114;2023-02-25T00:02:04;99521.48;;;24.56;30.16
42511;BME280;28141;51.120;17.114;2023-02-25T00:05:18;99516.23;;;24.54;30.18
42511;BME280;28141;51.120;17.114;2023-02-25T00:08:33;99525.05;;;24.51;30.33
42511;BME280;28141;51.120;17.114;2023-02-25T00:11:48;99519.27;;;24.58;30.48
42511;BME280;28141;51.120;17.114;2023-02-25T00:15:27;99520.95;;;24.59;30.29
42511;BME280;28141;51.120;17.114;2023-02-25T00:18:41;99523.96;;;24.52;30.42
42511;BME280;28141;51.120;17.114;2023-02-25T00:21:59;99527.57;;;24.53;30.06
42511;BME280;28141;51.120;17.114;2023-02-25T00:25:14;99516.77;;;24.56;30.06
42511;BME280;28141;51.120;17.114;2023-02-25T00:28:55;99518.10;;;24.44;30.33
42511;BME280;28141;51.120;17.114;2023-02-25T00:32:09;99502.34;;;24.44;30.55
42511;BME280;28141;51.120;17.114;2023-02-25T00:35:23;99505.37;;;24.43;30.30
42511;BME280;28141;51.120;17.114;2023-02-25T00:38:38;99485.11;;;24.37;30.61
42511;BME280;28141;51.120;17.114;2023-02-25T00:42:17;99486.53;;;24.45;30.41
42511;BME280;28141;51.120;17.114;2023-02-25T00:45:32;99483.50;;;24.46;30.39
42511;BME280;28141;51.120;17.114;2023-02-25T00:48:46;99469.34;;;24.37;30.52
42511;BME280;28141;51.120;17.114;2023-02-25T00:52:00;99473.76;;;24.33;30.48
42511;BME280;28141;51.120;17.114;2023-02-25T00:55:39;99475.40;;;24.34;30.49
42511;BME280;28141;51.120;17.114;2023-02-25T00:58:53;99464.05;;;24.31;30.53
42511;BME280;28141;51.120;17.114;2023-02-25T01:02:07;99457.22;;;24.44;30.47
42511;BME280;28141;51.120;17.114;2023-02-25T01:05:21;99454.39;;;24.38;30.44
42511;BME280;28141;51.120;17.114;2023-02-25T01:09:00;99446.66;;;24.41;30.42
42511;BME280;28141;51.120;17.114;2023-02-25T01:12:14;99435.86;;;24.39;30.80
42511;BME280;28141;51.120;17.114;2023-02-25T01:15:29;99437.53;;;24.40;30.44
42511;BME280;28141;51.120;17.114;2023-02-25T01:18:44;99425.93;;;24.43;30.45
42511;BME280;28141;51.120;17.114;2023-02-25T01:22:24;99425.10;;;24.48;30.37
42511;BME280;28141;51.120;17.114;2023-02-25T01:25:39;99422.91;;;24.50;30.35
42511;BME280;28141;51.120;17.114;2023-02-25T01:28:53;99422.95;;;24.55;30.23
42511;BME280;28141;51.120;17.114;2023-02-25T01:32:11;99427.12;;;24.62;30.22
42511;BME280;28141;51.120;17.114;2023-02-25T01:35:53;99425.98;;;24.58;30.17
42511;BME280;28141;51.120;17.114;2023-02-25T01:39:08;99415.16;;;24.52;30.25
42511;BME280;28141;51.120;17.114;2023-02-25T01:42:22;99413.24;;;24.52;29.99
42511;BME280;28141;51.120;17.114;2023-02-25T01:45:37;99417.10;;;24.51;30.15
42511;BME280;28141;51.120;17.114;2023-02-25T01:49:47;99416.53;;;24.49;30.24
42511;BME280;28141;51.120;17.114;2023-02-25T01:52:51;99409.34;;;24.48;30.44
42511;BME280;28141;51.120;17.114;2023-02-25T01:56:06;99407.13;;;24.50;30.16
42511;BME280;28141;51.120;17.114;2023-02-25T01:59:50;99407.13;;;24.50;30.24
42511;BME280;28141;51.120;17.114;2023-02-25T02:03:07;99402.13;;;24.47;30.33
42511;BME280;28141;51.120;17.114;2023-02-25T02:06:37;99391.62;;;24.44;30.45
42511;BME280;28141;51.120;17.114;2023-02-25T02:10:16;99403.75;;;24.38;30.29
42511;BME280;28141;51.120;17.114;2023-02-25T02:13:34;99394.38;;;24.44;30.20
42511;BME280;28141;51.120;17.114;2023-02-25T02:49:12;99380.43;;;24.24;30.38
42511;BME280;28141;51.120;17.114;2023-02-25T02:52:56;99384.37;;;24.33;30.28
42511;BME280;28141;51.120;17.114;2023-02-25T02:56:14;99379.95;;;24.37;30.26
42511;BME280;28141;51.120;17.114;2023-02-25T02:59:36;99386.31;;;24.37;30.06
42511;BME280;28141;51.120;17.114;2023-02-25T03:03:24;99391.27;;;24.30;30.23
42511;BME280;28141;51.120;17.114;2023-02-25T03:06:55;99390.48;;;24.40;30.00
42511;BME280;28141;51.120;17.114;2023-02-25T03:10:15;99386.63;;;24.41;30.09
42511;BME280;28141;51.120;17.114;2023-02-25T03:13:57;99384.91;;;24.35;30.06
42511;BME280;28141;51.120;17.114;2023-02-25T03:20:41;99389.08;;;24.32;30.01
42511;BME280;28141;51.120;17.114;2023-02-25T03:27:49;99394.30;;;24.29;30.09
42511;BME280;28141;51.120;17.114;2023-02-25T03:35:00;99387.15;;;24.38;29.91
42511;BME280;28141;51.120;17.114;2023-02-25T03:38:22;99377.17;;;24.32;29.84
42511;BME280;28141;51.120;17.114;2023-02-25T03:41:41;99388.19;;;24.22;30.08
42511;BME280;28141;51.120;17.114;2023-02-25T03:45:22;99389.87;;;24.28;30.01
42511;BME280;28141;51.120;17.114;2023-02-25T03:48:38;99387.89;;;24.23;30.17
42511;BME280;28141;51.120;17.114;2023-02-25T03:51:55;99378.22;;;24.26;29.87
42511;BME280;28141;51.120;17.114;2023-02-25T03:55:13;99373.45;;;24.16;30.11
42511;BME280;28141;51.120;17.114;2023-02-25T03:58:54;99377.40;;;24.25;30.13
42511;BME280;28141;51.120;17.114;2023-02-25T04:02:08;99380.95;;;24.21;30.28
42511;BME280;28141;51.120;17.114;2023-02-25T04:05:24;99370.95;;;24.15;30.14
42511;BME280;28141;51.120;17.114;2023-02-25T04:08:41;99369.58;;;24.17;30.38
42511;BME280;28141;51.120;17.114;2023-02-25T04:12:19;99382.32;;;24.18;30.17
42511;BME280;28141;51.120;17.114;2023-02-25T04:15:33;99375.95;;;24.18;29.95
42511;BME280;28141;51.120;17.114;2023-02-25T04:18:47;99375.42;;;24.21;30.03
42511;BME280;28141;51.120;17.114;2023-02-25T04:22:01;99366.52;;;24.14;30.07
42511;BME280;28141;51.120;17.114;2023-02-25T04:25:42;99374.28;;;24.17;30.13
42511;BME280;28141;51.120;17.114;2023-02-25T04:28:57;99367.69;;;24.23;30.11
42511;BME280;28141;51.120;17.114;2023-02-25T04:32:11;99364.58;;;24.14;30.04
42511;BME280;28141;51.120;17.114;2023-02-25T04:35:25;99358.52;;;24.17;30.11
42511;BME280;28141;51.120;17.114;2023-02-25T04:39:04;99349.12;;;24.18;30.11
42511;BME280;28141;51.120;17.114;2023-02-25T04:42:18;99346.05;;;24.15;30.42
42511;BME280;28141;51.120;17.114;2023-02-25T04:45:32;99341.34;;;24.10;30.08
42511;BME280;28141;51.120;17.114;2023-02-25T04:48:46;99341.35;;;24.15;30.21
42511;BME280;28141;51.120;17.114;2023-02-25T04:52:26;99344.41;;;24.19;30.09
42511;BME280;28141;51.120;17.114;2023-02-25T04:55:40;99333.91;;;24.21;29.95
42511;BME280;28141;51.120;17.114;2023-02-25T04:58:55;99333.88;;;24.16;29.89
42511;BME280;28141;51.120;17.114;2023-02-25T05:02:10;99328.65;;;24.19;29.85
42511;BME280;28141;51.120;17.114;2023-02-25T05:05:49;99331.12;;;24.16;29.96
42511;BME280;28141;51.120;17.114;2023-02-25T05:09:03;99322.89;;;24.26;29.87
42511;BME280;28141;51.120;17.114;2023-02-25T05:12:18;99323.16;;;24.24;29.79
42511;BME280;28141;51.120;17.114;2023-02-25T05:15:32;99328.69;;;24.24;29.67
42511;BME280;28141;51.120;17.114;2023-02-25T05:19:20;99330.02;;;24.17;29.76
42511;BME280;28141;51.120;17.114;2023-02-25T05:22:38;99319.48;;;24.14;29.75
42511;BME280;28141;51.120;17.114;2023-02-25T05:25:53;99325.05;;;24.19;29.62
42511;BME280;28141;51.120;17.114;2023-02-25T05:29:35;99333.05;;;24.15;29.78
42511;BME280;28141;51.120;17.114;2023-02-25T05:32:49;99333.58;;;24.12;29.45
42511;BME280;28141;51.120;17.114;2023-02-25T05:36:10;99333.04;;;24.10;29.95
42511;BME280;28141;51.120;17.114;2023-02-25T05:39:24;99333.58;;;24.12;29.90
42511;BME280;28141;51.120;17.114;2023-02-25T05:44:36;99338.32;;;24.17;29.84
42511;BME280;28141;51.120;17.114;2023-02-25T05:47:50;99343.05;;;24.21;29.74
42511;BME280;28141;51.120;17.114;2023-02-25T05:51:06;99342.70;;;24.08;29.75
42511;BME280;28141;51.120;17.114;2023-02-25T05:54:48;99349.87;;;24.03;29.86
42511;BME280;28141;51.120;17.114;2023-02-25T05:58:02;99343.54;;;24.08;29.86
42511;BME280;28141;51.120;17.114;2023-02-25T06:01:18;99335.20;;;24.03;29.83
42511;BME280;28141;51.120;17.114;2023-02-25T06:04:34;99336.03;;;24.03;30.03
42511;BME280;28141;51.120;17.114;2023-02-25T06:08:13;99346.26;;;24.03;30.02
42511;BME280;28141;51.120;17.114;2023-02-25T06:11:28;99353.77;;;24.08;29.98
42511;BME280;28141;51.120;17.114;2023-02-25T06:14:42;99346.30;;;24.08;29.82
42511;BME280;28141;51.120;17.114;2023-02-25T06:17:56;99360.35;;;24.01;29.97
42511;BME280;28141;51.120;17.114;2023-02-25T06:21:35;99369.78;;;24.00;29.97
42511;BME280;28141;51.120;17.114;2023-02-25T06:24:49;99360.40;;;24.07;29.95
42511;BME280;28141;51.120;17.114;2023-02-25T06:28:03;99363.70;;;24.03;30.00
42511;BME280;28141;51.120;17.114;2023-02-25T06:31:19;99361.49;;;24.06;29.93
42511;BME280;28141;51.120;17.114;2023-02-25T06:34:59;99372.03;;;24.09;29.94
42511;BME280;28141;51.120;17.114;2023-02-25T06:38:13;99363.21;;;24.12;30.03
42511;BME280;28141;51.120;17.114;2023-02-25T06:41:26;99374.81;;;24.14;29.83
42511;BME280;28141;51.120;17.114;2023-02-25T06:44:40;99377.04;;;24.12;29.93
42511;BME280;28141;51.120;17.114;2023-02-25T06:48:19;99391.97;;;24.11;29.87
42511;BME280;28141;51.120;17.114;2023-02-25T06:51:32;99386.97;;;24.08;29.94
42511;BME280;28141;51.120;17.114;2023-02-25T06:54:46;99394.69;;;24.06;29.89
42511;BME280;28141;51.120;17.114;2023-02-25T06:58:00;99393.34;;;24.13;29.99
42511;BME280;28141;51.120;17.114;2023-02-25T07:01:39;99405.80;;;24.11;29.78
42511;BME280;28141;51.120;17.114;2023-02-25T07:04:53;99401.95;;;24.17;29.77
42511;BME280;28141;51.120;17.114;2023-02-25T07:08:08;99407.30;;;24.28;29.81
42511;BME280;28141;51.120;17.114;2023-02-25T07:11:30;99404.79;;;24.22;29.68
42511;BME280;28141;51.120;17.114;2023-02-25T07:15:12;99406.08;;;24.14;29.75
42511;BME280;28141;51.120;17.114;2023-02-25T07:18:26;99409.41;;;24.11;29.76
42511;BME280;28141;51.120;17.114;2023-02-25T07:21:40;99399.17;;;24.12;30.06
42511;BME280;28141;51.120;17.114;2023-02-25T07:24:54;99406.91;;;24.10;29.90
42511;BME280;28141;51.120;17.114;2023-02-25T07:28:33;99405.23;;;24.09;29.83
42511;BME280;28141;51.120;17.114;2023-02-25T07:31:48;99404.65;;;24.07;29.80
42511;BME280;28141;51.120;17.114;2023-02-25T07:35:02;99397.76;;;24.09;29.79
42511;BME280;28141;51.120;17.114;2023-02-25T07:38:16;99401.94;;;24.12;29.63
42511;BME280;28141;51.120;17.114;2023-02-25T07:41:55;99401.10;;;24.11;29.84
42511;BME280;28141;51.120;17.114;2023-02-25T07:45:10;99409.34;;;24.01;30.04
42511;BME280;28141;51.120;17.114;2023-02-25T07:48:24;99404.13;;;24.10;29.93
42511;BME280;28141;51.120;17.114;2023-02-25T07:51:38;99412.38;;;24.05;29.91
42511;BME280;28141;51.120;17.114;2023-02-25T07:55:17;99420.66;;;23.99;30.04
42511;BME280;28141;51.120;17.114;2023-02-25T07:58:31;99413.22;;;24.05;29.77
42511;BME280;28141;51.120;17.114;2023-02-25T08:01:45;99412.43;;;24.10;30.01
42511;BME280;28141;51.120;17.114;2023-02-25T08:05:00;99407.21;;;24.18;29.90
42511;BME280;28141;51.120;17.114;2023-02-25T08:08:38;99413.54;;;24.14;29.84
42511;BME280;28141;51.120;17.114;2023-02-25T08:11:52;99404.14;;;24.15;29.85
42511;BME280;28141;51.120;17.114;2023-02-25T08:15:07;99408.58;;;24.16;29.73
42511;BME280;28141;51.120;17.114;2023-02-25T08:18:21;99410.12;;;24.33;29.53
42511;BME280;28141;51.120;17.114;2023-02-25T08:21:59;99408.66;;;24.26;29.64
42511;BME280;28141;51.120;17.114;2023-02-25T08:25:14;99407.27;;;24.23;29.70
42511;BME280;28141;51.120;17.114;2023-02-25T08:28:28;99410.60;;;24.25;29.49
42511;BME280;28141;51.120;17.114;2023-02-25T08:31:45;99426.93;;;24.22;29.69
42511;BME280;28141;51.120;17.114;2023-02-25T08:35:25;99429.75;;;24.32;29.67
42511;BME280;28141;51.120;17.114;2023-02-25T08:38:39;99417.02;;;24.36;29.40
42511;BME280;28141;51.120;17.114;2023-02-25T08:41:53;99427.30;;;24.46;29.46
42511;BME280;28141;51.120;17.114;2023-02-25T08:45:08;99428.66;;;24.38;29.62
42511;BME280;28141;51.120;17.114;2023-02-25T08:48:48;99437.00;;;24.43;29.50
42511;BME280;28141;51.120;17.114;2023-02-25T08:52:03;99444.75;;;24.46;29.31
42511;BME280;28141;51.120;17.114;2023-02-25T08:55:17;99443.02;;;24.35;29.73
42511;BME280;28141;51.120;17.114;2023-02-25T08:58:31;99437.49;;;24.35;29.55
42511;BME280;28141;51.120;17.114;2023-02-25T09:02:11;99452.15;;;24.30;29.73
42511;BME280;28141;51.120;17.114;2023-02-25T09:05:29;99449.66;;;24.34;29.85
42511;BME280;28141;51.120;17.114;2023-02-25T09:08:43;99451.30;;;24.30;29.82
42511;BME280;28141;51.120;17.114;2023-02-25T09:11:57;99448.56;;;24.35;29.85
42511;BME280;28141;51.120;17.114;2023-02-25T09:15:35;99461.81;;;24.28;29.83
42511;BME280;28141;51.120;17.114;2023-02-25T09:18:50;99460.13;;;24.22;29.52
42511;BME280;28141;51.120;17.114;2023-02-25T09:22:05;99461.81;;;24.28;29.68
42511;BME280;28141;51.120;17.114;2023-02-25T09:25:20;99459.57;;;24.25;29.68
42511;BME280;28141;51.120;17.114;2023-02-25T09:29:03;99464.05;;;24.31;29.78
42511;BME280;28141;51.120;17.114;2023-02-25T09:32:19;99464.88;;;24.31;29.91
42511;BME280;28141;51.120;17.114;2023-02-25T09:35:33;99469.86;;;24.34;29.74
42511;BME280;28141;51.120;17.114;2023-02-25T09:38:48;99476.27;;;24.40;29.63
42511;BME280;28141;51.120;17.114;2023-02-25T09:43:20;99484.05;;;24.43;29.64
42511;BME280;28141;51.120;17.114;2023-02-25T09:45:56;99475.45;;;24.45;29.56
42511;BME280;28141;51.120;17.114;2023-02-25T09:49:18;99486.84;;;24.48;29.44
42511;BME280;28141;51.120;17.114;2023-02-25T09:56:26;99495.96;;;24.44;29.50
42511;BME280;28141;51.120;17.114;2023-02-25T09:59:40;99499.63;;;24.54;29.14
42511;BME280;28141;51.120;17.114;2023-02-25T10:03:35;99498.58;;;24.65;29.39
42511;BME280;28141;51.120;17.114;2023-02-25T10:06:49;99516.49;;;24.53;29.39
42511;BME280;28141;51.120;17.114;2023-02-25T10:10:16;99516.87;;;24.71;29.53
42511;BME280;28141;51.120;17.114;2023-02-25T10:24:50;99522.71;;;24.75;29.29
42511;BME280;28141;51.120;17.114;2023-02-25T10:28:14;99526.80;;;24.67;29.33
42511;BME280;28141;51.120;17.114;2023-02-25T10:31:58;99523.25;;;24.77;29.42
42511;BME280;28141;51.120;17.114;2023-02-25T10:38:41;99530.19;;;24.74;29.39
42511;BME280;28141;51.120;17.114;2023-02-25T10:42:24;99528.58;;;24.89;29.29
42511;BME280;28141;51.120;17.114;2023-02-25T10:45:39;99521.43;;;24.93;29.19
42511;BME280;28141;51.120;17.114;2023-02-25T10:49:02;99515.09;;;24.97;28.84
42511;BME280;28141;51.120;17.114;2023-02-25T10:56:11;99531.76;;;25.13;28.92
42511;BME280;28141;51.120;17.114;2023-02-25T10:59:34;99533.69;;;25.12;28.58
42511;BME280;28141;51.120;17.114;2023-02-25T11:03:21;99539.27;;;25.17;28.73
42511;BME280;28141;51.120;17.114;2023-02-25T11:06:38;99533.75;;;25.27;28.73
42511;BME280;28141;51.120;17.114;2023-02-25T11:14:03;99547.81;;;25.05;28.73
42511;BME280;28141;51.120;17.114;2023-02-25T11:17:15;99563.07;;;25.13;28.45
42511;BME280;28141;51.120;17.114;2023-02-25T11:20:33;99563.06;;;25.08;28.76
42511;BME280;28141;51.120;17.114;2023-02-25T11:24:16;99576.35;;;25.11;28.86
42511;BME280;28141;51.120;17.114;2023-02-25T11:27:39;99575.02;;;25.19;28.58
42511;BME280;28141;51.120;17.114;2023-02-25T11:34:50;99579.16;;;25.16;28.81
42511;BME280;28141;51.120;17.114;2023-02-25T11:38:18;99573.63;;;25.21;28.86
42511;BME280;28141;51.120;17.114;2023-02-25T11:41:30;99579.48;;;25.25;29.00
42511;BME280;28141;51.120;17.114;2023-02-25T11:45:16;99584.22;;;25.29;28.62
42511;BME280;28141;51.120;17.114;2023-02-25T11:52:04;99587.18;;;25.13;28.57
42511;BME280;28141;51.120;17.114;2023-02-25T11:55:57;99600.51;;;25.21;28.75
42511;BME280;28141;51.120;17.114;2023-02-25T12:06:43;99609.24;;;24.92;28.85
42511;BME280;28141;51.120;17.114;2023-02-25T12:14:09;99618.96;;;24.95;29.12
42511;BME280;28141;51.120;17.114;2023-02-25T12:24:52;99628.21;;;24.73;29.45
42511;BME280;28141;51.120;17.114;2023-02-25T12:35:37;99638.52;;;24.83;29.40
42511;BME280;28141;51.120;17.114;2023-02-25T12:42:59;99645.41;;;24.81;29.36
42511;BME280;28141;51.120;17.114;2023-02-25T12:46:20;99640.14;;;24.79;29.08
42511;BME280;28141;51.120;17.114;2023-02-25T13:00:36;99662.23;;;24.69;29.49
42511;BME280;28141;51.120;17.114;2023-02-25T13:07:58;99677.05;;;24.53;29.55
42511;BME280;28141;51.120;17.114;2023-02-25T13:15:11;99688.48;;;24.61;29.55
42511;BME280;28141;51.120;17.114;2023-02-25T13:36:41;99726.48;;;24.17;30.06
42511;BME280;28141;51.120;17.114;2023-02-25T13:54:45;99755.90;;;24.23;30.01
42511;BME280;28141;51.120;17.114;2023-02-25T14:01:37;99766.83;;;24.13;30.05
42511;BME280;28141;51.120;17.114;2023-02-25T14:08:52;99777.46;;;24.21;30.15
42511;BME280;28141;51.120;17.114;2023-02-25T14:12:26;99781.94;;;24.22;30.17
42511;BME280;28141;51.120;17.114;2023-02-25T14:23:03;99801.12;;;24.12;30.31
42511;BME280;28141;51.120;17.114;2023-02-25T14:34:17;99815.23;;;24.11;30.25
42511;BME280;28141;51.120;17.114;2023-02-25T14:37:41;99824.04;;;24.08;30.18
42511;BME280;28141;51.120;17.114;2023-02-25T14:44:58;99825.02;;;24.18;30.13
42511;BME280;28141;51.120;17.114;2023-02-25T14:48:24;99837.75;;;24.19;30.29
42511;BME280;28141;51.120;17.114;2023-02-25T14:52:56;99842.91;;;24.11;30.13
42511;BME280;28141;51.120;17.114;2023-02-25T15:20:57;99909.22;;;24.06;30.26
42511;BME280;28141;51.120;17.114;2023-02-25T15:27:44;99916.87;;;23.98;30.31
42511;BME280;28141;51.120;17.114;2023-02-25T15:31:25;99917.27;;;24.07;30.20
42511;BME280;28141;51.120;17.114;2023-02-25T15:38:18;99918.82;;;23.81;30.54
42511;BME280;28141;51.120;17.114;2023-02-25T15:42:02;99934.01;;;23.79;30.53
42511;BME280;28141;51.120;17.114;2023-02-25T15:48:43;99946.40;;;23.76;30.34
42511;BME280;28141;51.120;17.114;2023-02-25T15:55:49;99956.95;;;23.62;30.67
42511;BME280;28141;51.120;17.114;2023-02-25T15:59:03;99959.22;;;23.65;30.71
42511;BME280;28141;51.120;17.114;2023-02-25T16:02:42;99973.30;;;23.64;30.71
42511;BME280;28141;51.120;17.114;2023-02-25T16:06:05;99977.73;;;23.65;30.55
42511;BME280;28141;51.120;17.114;2023-02-25T16:09:20;99980.51;;;23.65;30.85
42511;BME280;28141;51.120;17.114;2023-02-25T16:13:01;99987.86;;;23.59;30.69
42511;BME280;28141;51.120;17.114;2023-02-25T16:16:16;99988.55;;;23.67;30.59
42511;BME280;28141;51.120;17.114;2023-02-25T16:19:33;99994.67;;;23.69;30.66
42511;BME280;28141;51.120;17.114;2023-02-25T16:23:18;100008.30;;;23.58;30.71
42511;BME280;28141;51.120;17.114;2023-02-25T16:30:12;100014.45;;;23.49;30.98
42511;BME280;28141;51.120;17.114;2023-02-25T16:34:05;100025.30;;;23.50;30.88
42511;BME280;28141;51.120;17.114;2023-02-25T16:40:41;100028.69;;;23.41;31.03
42511;BME280;28141;51.120;17.114;2023-02-25T16:44:34;100032.53;;;23.40;30.94
42511;BME280;28141;51.120;17.114;2023-02-25T16:47:53;100037.22;;;23.39;30.89
42511;BME280;28141;51.120;17.114;2023-02-25T16:55:00;100052.88;;;23.34;31.01
42511;BME280;28141;51.120;17.114;2023-02-25T16:58:23;100067.86;;;23.38;30.88
42511;BME280;28141;51.120;17.114;2023-02-25T17:01:38;100068.82;;;23.43;30.90
42511;BME280;28141;51.120;17.114;2023-02-25T17:05:31;100083.69;;;23.54;30.84
42511;BME280;28141;51.120;17.114;2023-02-25T17:08:46;100094.94;;;23.64;30.88
42511;BME280;28141;51.120;17.114;2023-02-25T17:12:03;100094.61;;;23.49;30.76
42511;BME280;28141;51.120;17.114;2023-02-25T17:15:42;100107.88;;;23.47;30.80
42511;BME280;28141;51.120;17.114;2023-02-25T17:19:02;100111.11;;;23.44;30.85
42511;BME280;28141;51.120;17.114;2023-02-25T17:22:20;100110.76;;;23.40;30.88
42511;BME280;28141;51.120;17.114;2023-02-25T17:25:41;100122.29;;;23.37;30.83
42511;BME280;28141;51.120;17.114;2023-02-25T17:29:21;100124.33;;;23.42;30.91
42511;BME280;28141;51.120;17.114;2023-02-25T17:32:35;100127.25;;;23.35;30.90
42511;BME280;28141;51.120;17.114;2023-02-25T17:35:51;100141.07;;;23.35;30.58
42511;BME280;28141;51.120;17.114;2023-02-25T17:39:12;100136.98;;;23.26;30.72
42511;BME280;28141;51.120;17.114;2023-02-25T17:46:23;100155.84;;;23.29;30.77
42511;BME280;28141;51.120;17.114;2023-02-25T17:49:38;100166.30;;;23.27;31.07
42511;BME280;28141;51.120;17.114;2023-02-25T17:53:26;100173.51;;;23.28;31.05
42511;BME280;28141;51.120;17.114;2023-02-25T17:56:40;100169.30;;;23.25;31.19
42511;BME280;28141;51.120;17.114;2023-02-25T17:59:58;100169.57;;;23.24;31.05
42511;BME280;28141;51.120;17.114;2023-02-25T18:03:44;100179.18;;;23.21;31.12
42511;BME280;28141;51.120;17.114;2023-02-25T18:17:42;100187.34;;;23.16;31.37
42511;BME280;28141;51.120;17.114;2023-02-25T18:20:56;100200.28;;;23.39;31.13
42511;BME280;28141;51.120;17.114;2023-02-25T18:24:36;100205.72;;;23.34;31.00
42511;BME280;28141;51.120;17.114;2023-02-25T18:27:52;100207.03;;;23.32;31.33
42511;BME280;28141;51.120;17.114;2023-02-25T18:31:07;100214.72;;;23.29;31.11
42511;BME280;28141;51.120;17.114;2023-02-25T18:34:22;100226.16;;;23.21;31.16
42511;BME280;28141;51.120;17.114;2023-02-25T18:38:01;100234.05;;;23.29;31.12
42511;BME280;28141;51.120;17.114;2023-02-25T18:41:15;100233.66;;;23.49;30.88
42511;BME280;28141;51.120;17.114;2023-02-25T18:44:29;100246.64;;;23.49;30.80
42511;BME280;28141;51.120;17.114;2023-02-25T18:47:44;100249.79;;;23.41;30.66
42511;BME280;28141;51.120;17.114;2023-02-25T18:51:22;100249.79;;;23.41;30.79
42511;BME280;28141;51.120;17.114;2023-02-25T18:54:36;100255.23;;;23.36;31.09
42511;BME280;28141;51.120;17.114;2023-02-25T18:57:50;100258.94;;;23.29;31.37
42511;BME280;28141;51.120;17.114;2023-02-25T19:01:04;100267.13;;;23.24;30.90
42511;BME280;28141;51.120;17.114;2023-02-25T19:04:45;100269.75;;;23.31;31.00
42511;BME280;28141;51.120;17.114;2023-02-25T19:07:59;100267.13;;;23.24;30.96
42511;BME280;28141;51.120;17.114;2023-02-25T19:11:20;100278.18;;;23.24;30.96
42511;BME280;28141;51.120;17.114;2023-02-25T19:15:10;100278.75;;;23.26;31.03
42511;BME280;28141;51.120;17.114;2023-02-25T19:18:26;100281.18;;;23.23;31.22
42511;BME280;28141;51.120;17.114;2023-02-25T19:21:40;100293.78;;;23.30;31.19
42511;BME280;28141;51.120;17.114;2023-02-25T19:25:28;100303.15;;;23.29;31.01
42511;BME280;28141;51.120;17.114;2023-02-25T19:28:43;100309.52;;;23.18;30.99
42511;BME280;28141;51.120;17.114;2023-02-25T19:31:57;100306.15;;;23.28;31.15
42511;BME280;28141;51.120;17.114;2023-02-25T19:35:11;100319.36;;;23.26;31.19
42511;BME280;28141;51.120;17.114;2023-02-25T19:38:50;100333.17;;;23.26;31.12
42511;BME280;28141;51.120;17.114;2023-02-25T19:42:05;100340.29;;;23.34;31.02
42511;BME280;28141;51.120;17.114;2023-02-25T19:45:21;100344.84;;;23.28;31.19
42511;BME280;28141;51.120;17.114;2023-02-25T19:48:36;100340.52;;;23.32;31.16
42511;BME280;28141;51.120;17.114;2023-02-25T19:52:14;100353.13;;;23.28;31.06
42511;BME280;28141;51.120;17.114;2023-02-25T19:55:29;100356.02;;;23.33;31.14
42511;BME280;28141;51.120;17.114;2023-02-25T19:58:43;100365.16;;;23.34;31.08
42511;BME280;28141;51.120;17.114;2023-02-25T20:01:57;100364.08;;;23.35;30.63
42511;BME280;28141;51.120;17.114;2023-02-25T20:05:35;100376.46;;;23.44;30.90
42511;BME280;28141;51.120;17.114;2023-02-25T20:08:50;100384.00;;;23.37;30.86
42511;BME280;28141;51.120;17.114;2023-02-25T20:12:08;100393.41;;;23.36;31.08
42511;BME280;28141;51.120;17.114;2023-02-25T20:15:22;100394.95;;;23.32;31.22
42511;BME280;28141;51.120;17.114;2023-02-25T20:19:05;100402.41;;;23.43;30.99
42511;BME280;28141;51.120;17.114;2023-02-25T20:22:20;100397.64;;;23.50;30.83
42511;BME280;28141;51.120;17.114;2023-02-25T20:25:36;100408.60;;;23.56;30.92
42511;BME280;28141;51.120;17.114;2023-02-25T20:28:52;100406.13;;;23.48;30.90
42511;BME280;28141;51.120;17.114;2023-02-25T20:32:31;100426.26;;;23.55;30.81
42511;BME280;28141;51.120;17.114;2023-02-25T20:35:45;100423.22;;;23.45;30.67
42511;BME280;28141;51.120;17.114;2023-02-25T20:42:50;100436.43;;;23.43;30.86
42511;BME280;28141;51.120;17.114;2023-02-25T20:46:05;100438.23;;;23.49;30.96
42511;BME280;28141;51.120;17.114;2023-02-25T20:49:19;100449.08;;;23.51;30.84
42511;BME280;28141;51.120;17.114;2023-02-25T20:52:33;100454.76;;;23.56;30.59
42511;BME280;28141;51.120;17.114;2023-02-25T20:56:13;100467.13;;;23.53;30.76
42511;BME280;28141;51.120;17.114;2023-02-25T20:59:29;100465.02;;;23.49;30.96
42511;BME280;28141;51.120;17.114;2023-02-25T21:02:42;100481.79;;;23.54;30.90
42511;BME280;28141;51.120;17.114;2023-02-25T21:05:56;100475.04;;;23.50;30.73
42511;BME280;28141;51.120;17.114;2023-02-25T21:09:35;100481.41;;;23.50;30.76
42511;BME280;28141;51.120;17.114;2023-02-25T21:12:49;100480.05;;;23.41;30.74
42511;BME280;28141;51.120;17.114;2023-02-25T21:16:05;100485.80;;;23.40;30.83
42511;BME280;28141;51.120;17.114;2023-02-25T21:19:21;100494.85;;;23.47;30.85
42511;BME280;28141;51.120;17.114;2023-02-25T21:23:00;100494.85;;;23.47;30.77
42511;BME280;28141;51.120;17.114;2023-02-25T21:26:14;100502.16;;;23.41;30.71
42511;BME280;28141;51.120;17.114;2023-02-25T21:29:29;100503.96;;;23.36;30.59
42511;BME280;28141;51.120;17.114;2023-02-25T21:32:44;100515.02;;;23.36;30.95
42511;BME280;28141;51.120;17.114;2023-02-25T21:36:22;100514.44;;;23.45;30.83
42511;BME280;28141;51.120;17.114;2023-02-25T21:39:38;100513.45;;;23.40;30.61
42511;BME280;28141;51.120;17.114;2023-02-25T21:42:53;100522.73;;;23.45;30.73
42511;BME280;28141;51.120;17.114;2023-02-25T21:46:11;100516.27;;;23.51;30.65
42511;BME280;28141;51.120;17.114;2023-02-25T21:49:50;100529.45;;;23.49;30.66
42511;BME280;28141;51.120;17.114;2023-02-25T21:53:07;100532.34;;;23.43;30.76